aviador You're here:

CYTE Decoded Metar

CAPE DORSET in NU, CANADA
Report Time2017-07-26 04:00:00
UTC Time2017-07-26 04:40:23
Flight Rules vfr VFR
Wind090° at 05 kt
W.Decomp.*RWY 13: 4.9 kt HW 1.1 kt LCW
W.Rank090° ranks 6
Current wind is below 090° avg. (10.1)
Visibility9999 m
Phenomena:N/A
Clouds:N/A
CeilingNone
Temp04°C (ISA -11)
Dew Point04°C (100% RH)
AAT0.9°C
QNH1006 hPa
Density Alt-791 ft
Elevation154 ft
Report Wrong Elevation
Raw Report
CYTE 260400Z AUTO 09005KT 9SM CLR 04/04 A2970 RMK SLP062=

Extra information for CYTE:More info

Metar Taf Metar & Taf Last 4 Metars F.Rules Stats Wind Profile Meteogram Temp Stats Airport Information Weather charts Add Link Nearby VenuesMetar ALERT Operation Metar Decoded Social comments